sensor_id;sensor_type;location;lat;lon;timestamp;temperature;humidity
4103;DHT22;2065;49.790;9.620;2022-12-29T00:01:31;11.90;56.80
4103;DHT22;2065;49.790;9.620;2022-12-29T00:03:58;12.10;56.30
4103;DHT22;2065;49.790;9.620;2022-12-29T00:06:25;12.10;56.50
4103;DHT22;2065;49.790;9.620;2022-12-29T00:08:52;12.00;55.80
4103;DHT22;2065;49.790;9.620;2022-12-29T00:11:22;12.10;56.20
4103;DHT22;2065;49.790;9.620;2022-12-29T00:13:49;12.00;55.80
4103;DHT22;2065;49.790;9.620;2022-12-29T00:16:35;12.00;55.60
4103;DHT22;2065;49.790;9.620;2022-12-29T00:19:03;11.90;56.60
4103;DHT22;2065;49.790;9.620;2022-12-29T00:21:30;11.90;56.50
4103;DHT22;2065;49.790;9.620;2022-12-29T00:24:17;12.10;56.70
4103;DHT22;2065;49.790;9.620;2022-12-29T00:27:12;12.00;56.80
4103;DHT22;2065;49.790;9.620;2022-12-29T00:29:57;12.00;56.70
4103;DHT22;2065;49.790;9.620;2022-12-29T00:32:42;11.80;56.90
4103;DHT22;2065;49.790;9.620;2022-12-29T00:35:29;12.10;57.30
4103;DHT22;2065;49.790;9.620;2022-12-29T00:37:59;12.30;56.40
4103;DHT22;2065;49.790;9.620;2022-12-29T00:40:45;12.10;56.70
4103;DHT22;2065;49.790;9.620;2022-12-29T00:43:30;12.30;56.70
4103;DHT22;2065;49.790;9.620;2022-12-29T00:46:14;12.50;56.40
4103;DHT22;2065;49.790;9.620;2022-12-29T00:48:41;12.50;56.40
4103;DHT22;2065;49.790;9.620;2022-12-29T00:51:26;12.70;56.00
4103;DHT22;2065;49.790;9.620;2022-12-29T00:53:53;12.60;55.70
4103;DHT22;2065;49.790;9.620;2022-12-29T00:56:20;12.60;56.00
4103;DHT22;2065;49.790;9.620;2022-12-29T00:58:48;12.70;56.30
4103;DHT22;2065;49.790;9.620;2022-12-29T01:01:15;12.80;55.90
4103;DHT22;2065;49.790;9.620;2022-12-29T01:03:42;12.50;55.80
4103;DHT22;2065;49.790;9.620;2022-12-29T01:06:11;12.40;56.50
4103;DHT22;2065;49.790;9.620;2022-12-29T01:08:38;12.60;56.50
4103;DHT22;2065;49.790;9.620;2022-12-29T01:11:07;12.80;56.30
4103;DHT22;2065;49.790;9.620;2022-12-29T01:13:34;12.90;56.10
4103;DHT22;2065;49.790;9.620;2022-12-29T01:16:03;13.00;56.20
4103;DHT22;2065;49.790;9.620;2022-12-29T01:18:30;12.90;56.40
4103;DHT22;2065;49.790;9.620;2022-12-29T01:20:59;13.00;56.30
4103;DHT22;2065;49.790;9.620;2022-12-29T01:23:26;13.10;56.20
4103;DHT22;2065;49.790;9.620;2022-12-29T01:25:53;13.10;56.30
4103;DHT22;2065;49.790;9.620;2022-12-29T01:28:21;12.90;56.50
4103;DHT22;2065;49.790;9.620;2022-12-29T01:30:48;13.00;57.20
4103;DHT22;2065;49.790;9.620;2022-12-29T01:33:16;13.00;57.20
4103;DHT22;2065;49.790;9.620;2022-12-29T01:35:43;13.10;57.10
4103;DHT22;2065;49.790;9.620;2022-12-29T01:38:10;13.30;56.80
4103;DHT22;2065;49.790;9.620;2022-12-29T01:40:43;13.30;57.00
4103;DHT22;2065;49.790;9.620;2022-12-29T01:43:12;13.40;56.70
4103;DHT22;2065;49.790;9.620;2022-12-29T01:45:42;13.40;57.20
4103;DHT22;2065;49.790;9.620;2022-12-29T01:48:11;13.60;57.00
4103;DHT22;2065;49.790;9.620;2022-12-29T01:50:43;13.70;56.90
4103;DHT22;2065;49.790;9.620;2022-12-29T01:53:15;13.90;56.70
4103;DHT22;2065;49.790;9.620;2022-12-29T01:55:46;13.70;57.40
4103;DHT22;2065;49.790;9.620;2022-12-29T01:58:17;13.40;57.80
4103;DHT22;2065;49.790;9.620;2022-12-29T02:00:46;13.40;58.20
4103;DHT22;2065;49.790;9.620;2022-12-29T02:03:14;13.40;58.40
4103;DHT22;2065;49.790;9.620;2022-12-29T02:05:49;13.40;58.50
4103;DHT22;2065;49.790;9.620;2022-12-29T02:08:19;13.30;58.90
4103;DHT22;2065;49.790;9.620;2022-12-29T02:10:47;13.00;59.90
4103;DHT22;2065;49.790;9.620;2022-12-29T02:13:16;12.80;61.20
4103;DHT22;2065;49.790;9.620;2022-12-29T02:15:53;13.10;60.90
4103;DHT22;2065;49.790;9.620;2022-12-29T02:18:32;13.00;60.50
4103;DHT22;2065;49.790;9.620;2022-12-29T02:25:00;13.20;60.80
4103;DHT22;2065;49.790;9.620;2022-12-29T02:27:43;13.20;60.70
4103;DHT22;2065;49.790;9.620;2022-12-29T02:30:29;13.20;61.00
4103;DHT22;2065;49.790;9.620;2022-12-29T02:33:02;13.20;61.90
4103;DHT22;2065;49.790;9.620;2022-12-29T02:35:35;13.30;62.00
4103;DHT22;2065;49.790;9.620;2022-12-29T02:38:13;13.10;62.70
4103;DHT22;2065;49.790;9.620;2022-12-29T02:40:47;12.90;64.00
4103;DHT22;2065;49.790;9.620;2022-12-29T02:43:22;13.00;63.60
4103;DHT22;2065;49.790;9.620;2022-12-29T02:45:56;13.20;62.70
4103;DHT22;2065;49.790;9.620;2022-12-29T02:48:28;13.10;63.60
4103;DHT22;2065;49.790;9.620;2022-12-29T02:51:00;13.30;63.50
4103;DHT22;2065;49.790;9.620;2022-12-29T02:53:30;13.40;63.30
4103;DHT22;2065;49.790;9.620;2022-12-29T02:56:18;13.20;63.90
4103;DHT22;2065;49.790;9.620;2022-12-29T02:58:46;12.90;64.70
4103;DHT22;2065;49.790;9.620;2022-12-29T03:01:23;12.80;65.60
4103;DHT22;2065;49.790;9.620;2022-12-29T03:04:03;13.20;64.60
4103;DHT22;2065;49.790;9.620;2022-12-29T03:06:45;13.00;64.30
4103;DHT22;2065;49.790;9.620;2022-12-29T03:09:24;13.00;65.40
4103;DHT22;2065;49.790;9.620;2022-12-29T03:11:58;13.20;64.60
4103;DHT22;2065;49.790;9.620;2022-12-29T03:14:44;13.10;65.00
4103;DHT22;2065;49.790;9.620;2022-12-29T03:17:43;12.90;66.10
4103;DHT22;2065;49.790;9.620;2022-12-29T03:20:16;13.00;66.00
4103;DHT22;2065;49.790;9.620;2022-12-29T03:22:47;13.20;65.70
4103;DHT22;2065;49.790;9.620;2022-12-29T03:25:23;13.20;66.00
4103;DHT22;2065;49.790;9.620;2022-12-29T03:27:54;13.00;66.80
4103;DHT22;2065;49.790;9.620;2022-12-29T03:30:23;12.90;66.90
4103;DHT22;2065;49.790;9.620;2022-12-29T03:32:54;13.00;66.80
4103;DHT22;2065;49.790;9.620;2022-12-29T03:35:27;13.20;66.60
4103;DHT22;2065;49.790;9.620;2022-12-29T03:38:00;13.40;66.00
4103;DHT22;2065;49.790;9.620;2022-12-29T03:40:31;13.40;65.70
4103;DHT22;2065;49.790;9.620;2022-12-29T03:42:59;13.40;65.70
4103;DHT22;2065;49.790;9.620;2022-12-29T03:45:30;13.20;66.40
4103;DHT22;2065;49.790;9.620;2022-12-29T03:47:58;13.30;66.00
4103;DHT22;2065;49.790;9.620;2022-12-29T03:50:25;13.30;65.80
4103;DHT22;2065;49.790;9.620;2022-12-29T03:52:52;13.40;65.70
4103;DHT22;2065;49.790;9.620;2022-12-29T03:55:19;13.40;65.60
4103;DHT22;2065;49.790;9.620;2022-12-29T03:57:46;13.70;64.70
4103;DHT22;2065;49.790;9.620;2022-12-29T04:00:19;13.70;64.40
4103;DHT22;2065;49.790;9.620;2022-12-29T04:02:49;13.80;64.00
4103;DHT22;2065;49.790;9.620;2022-12-29T04:05:24;13.70;64.10
4103;DHT22;2065;49.790;9.620;2022-12-29T04:07:53;13.60;63.70
4103;DHT22;2065;49.790;9.620;2022-12-29T04:10:20;13.70;64.10
4103;DHT22;2065;49.790;9.620;2022-12-29T04:12:50;13.60;64.10
4103;DHT22;2065;49.790;9.620;2022-12-29T04:15:17;13.60;63.70
4103;DHT22;2065;49.790;9.620;2022-12-29T04:17:44;13.30;64.70
4103;DHT22;2065;49.790;9.620;2022-12-29T04:20:12;13.40;65.30
4103;DHT22;2065;49.790;9.620;2022-12-29T04:23:09;13.30;65.00
4103;DHT22;2065;49.790;9.620;2022-12-29T04:25:37;13.30;64.80
4103;DHT22;2065;49.790;9.620;2022-12-29T04:28:07;13.40;64.80
4103;DHT22;2065;49.790;9.620;2022-12-29T04:30:53;13.30;65.00
4103;DHT22;2065;49.790;9.620;2022-12-29T04:33:32;13.40;64.50
4103;DHT22;2065;49.790;9.620;2022-12-29T04:35:59;13.50;64.20
4103;DHT22;2065;49.790;9.620;2022-12-29T04:38:28;13.60;63.80
4103;DHT22;2065;49.790;9.620;2022-12-29T04:40:55;13.50;63.40
4103;DHT22;2065;49.790;9.620;2022-12-29T04:43:25;13.50;63.10
4103;DHT22;2065;49.790;9.620;2022-12-29T04:46:16;13.40;63.20
4103;DHT22;2065;49.790;9.620;2022-12-29T04:48:49;13.60;63.00
4103;DHT22;2065;49.790;9.620;2022-12-29T04:51:29;13.60;63.00
4103;DHT22;2065;49.790;9.620;2022-12-29T04:53:58;13.80;62.10
4103;DHT22;2065;49.790;9.620;2022-12-29T04:56:36;13.80;61.70
4103;DHT22;2065;49.790;9.620;2022-12-29T04:59:03;13.70;62.20
4103;DHT22;2065;49.790;9.620;2022-12-29T05:01:31;13.60;62.90
4103;DHT22;2065;49.790;9.620;2022-12-29T05:03:58;13.70;62.10
4103;DHT22;2065;49.790;9.620;2022-12-29T05:06:25;13.50;63.10
4103;DHT22;2065;49.790;9.620;2022-12-29T05:08:53;13.70;62.80
4103;DHT22;2065;49.790;9.620;2022-12-29T05:11:21;13.70;61.90
4103;DHT22;2065;49.790;9.620;2022-12-29T05:13:50;13.70;62.20
4103;DHT22;2065;49.790;9.620;2022-12-29T05:16:17;13.70;61.50
4103;DHT22;2065;49.790;9.620;2022-12-29T05:18:44;13.60;62.00
4103;DHT22;2065;49.790;9.620;2022-12-29T05:21:11;13.70;62.30
4103;DHT22;2065;49.790;9.620;2022-12-29T05:23:40;13.40;62.40
4103;DHT22;2065;49.790;9.620;2022-12-29T05:26:07;13.60;62.40
4103;DHT22;2065;49.790;9.620;2022-12-29T05:28:54;13.60;62.10
4103;DHT22;2065;49.790;9.620;2022-12-29T05:31:22;13.50;62.50
4103;DHT22;2065;49.790;9.620;2022-12-29T05:33:49;13.60;62.40
4103;DHT22;2065;49.790;9.620;2022-12-29T05:36:17;13.40;63.00
4103;DHT22;2065;49.790;9.620;2022-12-29T05:38:48;13.60;63.10
4103;DHT22;2065;49.790;9.620;2022-12-29T05:41:15;13.70;61.70
4103;DHT22;2065;49.790;9.620;2022-12-29T05:44:04;13.90;61.60
4103;DHT22;2065;49.790;9.620;2022-12-29T05:47:00;14.00;61.10
4103;DHT22;2065;49.790;9.620;2022-12-29T05:49:39;13.90;60.50
4103;DHT22;2065;49.790;9.620;2022-12-29T05:52:19;13.90;60.40
4103;DHT22;2065;49.790;9.620;2022-12-29T05:54:46;13.90;60.60
4103;DHT22;2065;49.790;9.620;2022-12-29T05:57:16;13.80;60.90
4103;DHT22;2065;49.790;9.620;2022-12-29T05:59:49;13.60;61.10
4103;DHT22;2065;49.790;9.620;2022-12-29T06:02:16;13.40;62.00
4103;DHT22;2065;49.790;9.620;2022-12-29T06:04:43;13.50;62.60
4103;DHT22;2065;49.790;9.620;2022-12-29T06:07:10;13.70;61.30
4103;DHT22;2065;49.790;9.620;2022-12-29T06:09:43;13.80;60.80
4103;DHT22;2065;49.790;9.620;2022-12-29T06:12:10;13.90;61.10
4103;DHT22;2065;49.790;9.620;2022-12-29T06:14:39;13.90;60.60
4103;DHT22;2065;49.790;9.620;2022-12-29T06:17:07;13.80;60.40
4103;DHT22;2065;49.790;9.620;2022-12-29T06:19:35;13.90;60.60
4103;DHT22;2065;49.790;9.620;2022-12-29T06:22:02;13.90;60.40
4103;DHT22;2065;49.790;9.620;2022-12-29T06:24:33;14.00;60.30
4103;DHT22;2065;49.790;9.620;2022-12-29T06:27:00;14.00;59.50
4103;DHT22;2065;49.790;9.620;2022-12-29T06:29:27;14.10;59.40
4103;DHT22;2065;49.790;9.620;2022-12-29T06:31:56;14.10;58.90
4103;DHT22;2065;49.790;9.620;2022-12-29T06:34:25;14.20;58.90
4103;DHT22;2065;49.790;9.620;2022-12-29T06:36:52;14.10;58.70
4103;DHT22;2065;49.790;9.620;2022-12-29T06:39:19;14.00;58.90
4103;DHT22;2065;49.790;9.620;2022-12-29T06:42:00;14.30;58.70
4103;DHT22;2065;49.790;9.620;2022-12-29T06:45:00;14.30;58.20
4103;DHT22;2065;49.790;9.620;2022-12-29T06:47:27;14.30;58.50
4103;DHT22;2065;49.790;9.620;2022-12-29T06:49:55;14.50;58.20
4103;DHT22;2065;49.790;9.620;2022-12-29T06:52:22;14.50;57.60
4103;DHT22;2065;49.790;9.620;2022-12-29T06:54:49;14.60;57.60
4103;DHT22;2065;49.790;9.620;2022-12-29T06:57:17;14.60;57.20
4103;DHT22;2065;49.790;9.620;2022-12-29T06:59:44;14.60;57.60
4103;DHT22;2065;49.790;9.620;2022-12-29T07:02:11;14.60;58.40
4103;DHT22;2065;49.790;9.620;2022-12-29T07:04:39;14.50;58.00
4103;DHT22;2065;49.790;9.620;2022-12-29T07:07:08;14.50;58.20
4103;DHT22;2065;49.790;9.620;2022-12-29T07:09:35;14.60;58.20
4103;DHT22;2065;49.790;9.620;2022-12-29T07:12:02;14.70;58.10
4103;DHT22;2065;49.790;9.620;2022-12-29T07:14:29;14.40;58.90
4103;DHT22;2065;49.790;9.620;2022-12-29T07:16:56;14.40;59.00
4103;DHT22;2065;49.790;9.620;2022-12-29T07:19:23;14.30;59.00
4103;DHT22;2065;49.790;9.620;2022-12-29T07:21:50;14.40;58.80
4103;DHT22;2065;49.790;9.620;2022-12-29T07:24:18;14.40;59.60
4103;DHT22;2065;49.790;9.620;2022-12-29T07:26:45;14.50;58.90
4103;DHT22;2065;49.790;9.620;2022-12-29T07:29:13;14.50;58.80
4103;DHT22;2065;49.790;9.620;2022-12-29T07:31:40;14.80;58.40
4103;DHT22;2065;49.790;9.620;2022-12-29T07:34:08;14.70;58.30
4103;DHT22;2065;49.790;9.620;2022-12-29T07:36:35;14.90;58.00
4103;DHT22;2065;49.790;9.620;2022-12-29T07:39:03;14.90;57.80
4103;DHT22;2065;49.790;9.620;2022-12-29T07:41:31;14.50;58.20
4103;DHT22;2065;49.790;9.620;2022-12-29T07:44:01;14.40;58.40
4103;DHT22;2065;49.790;9.620;2022-12-29T07:46:36;14.50;58.40
4103;DHT22;2065;49.790;9.620;2022-12-29T07:49:03;14.30;58.60
4103;DHT22;2065;49.790;9.620;2022-12-29T07:51:30;14.40;58.60
4103;DHT22;2065;49.790;9.620;2022-12-29T07:53:58;14.40;58.40
4103;DHT22;2065;49.790;9.620;2022-12-29T07:56:26;14.50;58.00
4103;DHT22;2065;49.790;9.620;2022-12-29T07:58:54;14.30;58.40
4103;DHT22;2065;49.790;9.620;2022-12-29T08:01:22;14.40;58.70
4103;DHT22;2065;49.790;9.620;2022-12-29T08:03:49;14.40;58.50
4103;DHT22;2065;49.790;9.620;2022-12-29T08:06:16;14.60;57.50
4103;DHT22;2065;49.790;9.620;2022-12-29T08:08:44;14.80;57.60
4103;DHT22;2065;49.790;9.620;2022-12-29T08:11:11;14.80;56.50
4103;DHT22;2065;49.790;9.620;2022-12-29T08:13:38;14.80;57.10
4103;DHT22;2065;49.790;9.620;2022-12-29T08:16:06;14.80;57.20
4103;DHT22;2065;49.790;9.620;2022-12-29T08:18:33;14.80;56.80
4103;DHT22;2065;49.790;9.620;2022-12-29T08:21:01;14.90;57.30
4103;DHT22;2065;49.790;9.620;2022-12-29T08:23:28;14.90;56.40
4103;DHT22;2065;49.790;9.620;2022-12-29T08:25:59;14.90;56.90
4103;DHT22;2065;49.790;9.620;2022-12-29T08:28:27;14.90;56.50
4103;DHT22;2065;49.790;9.620;2022-12-29T08:30:57;14.80;57.00
4103;DHT22;2065;49.790;9.620;2022-12-29T08:33:25;14.90;56.60
4103;DHT22;2065;49.790;9.620;2022-12-29T08:35:53;15.10;55.90
4103;DHT22;2065;49.790;9.620;2022-12-29T08:38:24;15.10;55.30
4103;DHT22;2065;49.790;9.620;2022-12-29T08:40:51;15.10;55.70
4103;DHT22;2065;49.790;9.620;2022-12-29T08:43:18;14.90;56.10
4103;DHT22;2065;49.790;9.620;2022-12-29T08:45:45;15.00;55.80
4103;DHT22;2065;49.790;9.620;2022-12-29T08:48:12;14.90;55.40
4103;DHT22;2065;49.790;9.620;2022-12-29T08:50:44;15.00;55.50
4103;DHT22;2065;49.790;9.620;2022-12-29T08:53:12;15.10;55.40
4103;DHT22;2065;49.790;9.620;2022-12-29T08:55:39;15.30;55.00
4103;DHT22;2065;49.790;9.620;2022-12-29T08:58:06;15.20;54.50
4103;DHT22;2065;49.790;9.620;2022-12-29T09:00:36;15.30;55.00
4103;DHT22;2065;49.790;9.620;2022-12-29T09:03:03;15.20;54.50
4103;DHT22;2065;49.790;9.620;2022-12-29T09:05:30;15.40;54.50
4103;DHT22;2065;49.790;9.620;2022-12-29T09:07:58;15.40;54.30
4103;DHT22;2065;49.790;9.620;2022-12-29T09:10:25;15.40;53.20
4103;DHT22;2065;49.790;9.620;2022-12-29T09:12:52;15.30;53.10
4103;DHT22;2065;49.790;9.620;2022-12-29T09:15:19;15.30;53.70
4103;DHT22;2065;49.790;9.620;2022-12-29T09:17:46;15.50;53.40
4103;DHT22;2065;49.790;9.620;2022-12-29T09:20:14;15.70;53.40
4103;DHT22;2065;49.790;9.620;2022-12-29T09:22:41;15.60;51.90
4103;DHT22;2065;49.790;9.620;2022-12-29T09:25:10;15.60;53.10
4103;DHT22;2065;49.790;9.620;2022-12-29T09:27:37;15.50;53.60
4103;DHT22;2065;49.790;9.620;2022-12-29T09:30:07;15.80;53.20
4103;DHT22;2065;49.790;9.620;2022-12-29T09:32:34;15.80;52.70
4103;DHT22;2065;49.790;9.620;2022-12-29T09:35:02;15.90;52.90
4103;DHT22;2065;49.790;9.620;2022-12-29T09:37:29;15.80;53.60
4103;DHT22;2065;49.790;9.620;2022-12-29T09:39:56;15.70;52.80
4103;DHT22;2065;49.790;9.620;2022-12-29T09:42:27;15.60;53.70
4103;DHT22;2065;49.790;9.620;2022-12-29T09:45:05;15.50;54.10
4103;DHT22;2065;49.790;9.620;2022-12-29T09:47:33;15.30;54.30
4103;DHT22;2065;49.790;9.620;2022-12-29T09:50:03;15.20;54.40
4103;DHT22;2065;49.790;9.620;2022-12-29T09:52:35;15.30;55.00
4103;DHT22;2065;49.790;9.620;2022-12-29T09:55:05;15.30;54.30
4103;DHT22;2065;49.790;9.620;2022-12-29T09:57:41;15.50;54.00
4103;DHT22;2065;49.790;9.620;2022-12-29T10:00:13;15.50;53.00
4103;DHT22;2065;49.790;9.620;2022-12-29T10:02:43;15.50;53.80
4103;DHT22;2065;49.790;9.620;2022-12-29T10:05:25;15.60;54.00
4103;DHT22;2065;49.790;9.620;2022-12-29T10:08:04;15.70;53.60
4103;DHT22;2065;49.790;9.620;2022-12-29T10:10:38;15.50;53.90
4103;DHT22;2065;49.790;9.620;2022-12-29T10:13:24;15.80;54.10
4103;DHT22;2065;49.790;9.620;2022-12-29T10:16:01;15.70;54.80
4103;DHT22;2065;49.790;9.620;2022-12-29T10:18:48;15.40;54.90
4103;DHT22;2065;49.790;9.620;2022-12-29T10:21:28;15.50;54.10
4103;DHT22;2065;49.790;9.620;2022-12-29T10:23:59;15.60;54.40
4103;DHT22;2065;49.790;9.620;2022-12-29T10:26:31;15.80;54.90
4103;DHT22;2065;49.790;9.620;2022-12-29T10:29:04;15.80;53.60
4103;DHT22;2065;49.790;9.620;2022-12-29T10:31:35;16.00;54.30
4103;DHT22;2065;49.790;9.620;2022-12-29T10:34:15;16.00;53.30
4103;DHT22;2065;49.790;9.620;2022-12-29T10:36:48;15.90;53.70
4103;DHT22;2065;49.790;9.620;2022-12-29T10:39:21;16.10;54.40
4103;DHT22;2065;49.790;9.620;2022-12-29T10:41:53;16.00;54.30
4103;DHT22;2065;49.790;9.620;2022-12-29T10:44:26;15.90;55.60
4103;DHT22;2065;49.790;9.620;2022-12-29T10:46:57;15.70;55.60
4103;DHT22;2065;49.790;9.620;2022-12-29T10:49:26;15.70;56.10
4103;DHT22;2065;49.790;9.620;2022-12-29T10:51:58;15.80;55.70
4103;DHT22;2065;49.790;9.620;2022-12-29T10:54:29;15.80;55.60
4103;DHT22;2065;49.790;9.620;2022-12-29T10:57:01;15.60;55.50
4103;DHT22;2065;49.790;9.620;2022-12-29T10:59:32;15.30;56.60
4103;DHT22;2065;49.790;9.620;2022-12-29T11:02:22;15.40;57.00
4103;DHT22;2065;49.790;9.620;2022-12-29T11:04:57;15.30;57.00
4103;DHT22;2065;49.790;9.620;2022-12-29T11:07:28;15.30;56.70
4103;DHT22;2065;49.790;9.620;2022-12-29T11:10:16;15.50;56.40
4103;DHT22;2065;49.790;9.620;2022-12-29T11:12:55;15.50;56.10
4103;DHT22;2065;49.790;9.620;2022-12-29T11:15:24;15.40;56.30
4103;DHT22;2065;49.790;9.620;2022-12-29T11:17:56;15.50;56.80
4103;DHT22;2065;49.790;9.620;2022-12-29T11:20:34;15.30;56.60
4103;DHT22;2065;49.790;9.620;2022-12-29T11:23:22;15.20;57.20
4103;DHT22;2065;49.790;9.620;2022-12-29T11:26:06;15.10;57.40
4103;DHT22;2065;49.790;9.620;2022-12-29T11:28:33;15.00;57.60
4103;DHT22;2065;49.790;9.620;2022-12-29T11:31:02;15.20;57.40
4103;DHT22;2065;49.790;9.620;2022-12-29T11:33:30;15.10;57.30
4103;DHT22;2065;49.790;9.620;2022-12-29T11:35:58;15.30;57.00
4103;DHT22;2065;49.790;9.620;2022-12-29T11:38:34;15.10;57.20
4103;DHT22;2065;49.790;9.620;2022-12-29T11:41:02;15.10;57.20
4103;DHT22;2065;49.790;9.620;2022-12-29T11:43:32;15.20;57.30
4103;DHT22;2065;49.790;9.620;2022-12-29T11:46:02;15.40;56.90
4103;DHT22;2065;49.790;9.620;2022-12-29T11:48:33;15.20;56.80
4103;DHT22;2065;49.790;9.620;2022-12-29T11:51:05;15.50;56.70
4103;DHT22;2065;49.790;9.620;2022-12-29T11:53:38;15.60;56.20
4103;DHT22;2065;49.790;9.620;2022-12-29T11:56:09;15.80;56.00
4103;DHT22;2065;49.790;9.620;2022-12-29T11:58:38;15.80;55.70
4103;DHT22;2065;49.790;9.620;2022-12-29T12:01:11;16.00;55.20
4103;DHT22;2065;49.790;9.620;2022-12-29T12:03:44;16.10;54.80
4103;DHT22;2065;49.790;9.620;2022-12-29T12:06:16;16.10;55.00
4103;DHT22;2065;49.790;9.620;2022-12-29T12:08:51;16.20;54.90
4103;DHT22;2065;49.790;9.620;2022-12-29T12:11:22;16.20;54.50
4103;DHT22;2065;49.790;9.620;2022-12-29T12:13:57;16.10;54.50
4103;DHT22;2065;49.790;9.620;2022-12-29T12:16:36;16.00;55.40
4103;DHT22;2065;49.790;9.620;2022-12-29T12:19:12;16.10;54.80
4103;DHT22;2065;49.790;9.620;2022-12-29T12:21:42;16.20;54.50
4103;DHT22;2065;49.790;9.620;2022-12-29T12:24:29;16.00;54.40
4103;DHT22;2065;49.790;9.620;2022-12-29T12:27:03;15.80;55.30
4103;DHT22;2065;49.790;9.620;2022-12-29T12:29:38;15.80;55.30
4103;DHT22;2065;49.790;9.620;2022-12-29T12:32:15;16.00;55.80
4103;DHT22;2065;49.790;9.620;2022-12-29T12:34:45;15.90;54.70
4103;DHT22;2065;49.790;9.620;2022-12-29T12:37:48;15.50;55.90
4103;DHT22;2065;49.790;9.620;2022-12-29T12:40:34;15.40;56.30
4103;DHT22;2065;49.790;9.620;2022-12-29T12:43:20;15.30;56.10
4103;DHT22;2065;49.790;9.620;2022-12-29T12:46:06;15.20;56.40
4103;DHT22;2065;49.790;9.620;2022-12-29T12:48:56;15.40;55.30
4103;DHT22;2065;49.790;9.620;2022-12-29T12:51:35;15.50;55.40
4103;DHT22;2065;49.790;9.620;2022-12-29T12:54:19;15.60;55.10
4103;DHT22;2065;49.790;9.620;2022-12-29T12:56:52;15.70;55.00
4103;DHT22;2065;49.790;9.620;2022-12-29T12:59:33;15.90;55.00
4103;DHT22;2065;49.790;9.620;2022-12-29T13:02:15;16.20;55.30
4103;DHT22;2065;49.790;9.620;2022-12-29T13:05:05;16.20;53.90
4103;DHT22;2065;49.790;9.620;2022-12-29T13:07:43;16.40;54.70
4103;DHT22;2065;49.790;9.620;2022-12-29T13:10:29;16.30;53.50
4103;DHT22;2065;49.790;9.620;2022-12-29T13:13:12;16.30;53.50
4103;DHT22;2065;49.790;9.620;2022-12-29T13:15:45;16.40;54.00
4103;DHT22;2065;49.790;9.620;2022-12-29T13:18:23;16.40;55.00
4103;DHT22;2065;49.790;9.620;2022-12-29T13:20:59;16.30;56.00
4103;DHT22;2065;49.790;9.620;2022-12-29T13:23:35;16.10;56.30
4103;DHT22;2065;49.790;9.620;2022-12-29T13:26:11;15.90;56.30
4103;DHT22;2065;49.790;9.620;2022-12-29T13:28:48;15.70;57.60
4103;DHT22;2065;49.790;9.620;2022-12-29T13:31:22;15.50;57.90
4103;DHT22;2065;49.790;9.620;2022-12-29T13:33:55;15.40;58.10
4103;DHT22;2065;49.790;9.620;2022-12-29T13:36:30;15.40;57.90
4103;DHT22;2065;49.790;9.620;2022-12-29T13:39:02;15.60;57.70
4103;DHT22;2065;49.790;9.620;2022-12-29T13:41:33;15.80;57.10
4103;DHT22;2065;49.790;9.620;2022-12-29T13:44:03;15.90;56.70
4103;DHT22;2065;49.790;9.620;2022-12-29T13:46:34;15.90;56.60
4103;DHT22;2065;49.790;9.620;2022-12-29T13:49:06;15.80;55.90
4103;DHT22;2065;49.790;9.620;2022-12-29T13:51:38;15.40;56.40
4103;DHT22;2065;49.790;9.620;2022-12-29T13:54:16;15.40;56.40
4103;DHT22;2065;49.790;9.620;2022-12-29T13:56:49;15.50;56.10
4103;DHT22;2065;49.790;9.620;2022-12-29T13:59:23;15.70;55.80
4103;DHT22;2065;49.790;9.620;2022-12-29T14:01:56;15.90;55.10
4103;DHT22;2065;49.790;9.620;2022-12-29T14:04:27;16.10;54.80
4103;DHT22;2065;49.790;9.620;2022-12-29T14:07:04;16.10;53.90
4103;DHT22;2065;49.790;9.620;2022-12-29T14:09:47;16.10;53.60
4103;DHT22;2065;49.790;9.620;2022-12-29T14:12:27;15.90;54.20
4103;DHT22;2065;49.790;9.620;2022-12-29T14:15:06;15.70;54.20
4103;DHT22;2065;49.790;9.620;2022-12-29T14:17:44;15.70;54.50
4103;DHT22;2065;49.790;9.620;2022-12-29T14:20:19;15.60;54.10
4103;DHT22;2065;49.790;9.620;2022-12-29T14:23:00;15.50;54.60
4103;DHT22;2065;49.790;9.620;2022-12-29T14:25:51;15.40;55.00
4103;DHT22;2065;49.790;9.620;2022-12-29T14:28:23;15.40;55.50
4103;DHT22;2065;49.790;9.620;2022-12-29T14:30:52;15.60;54.90
4103;DHT22;2065;49.790;9.620;2022-12-29T14:33:20;15.60;54.50
4103;DHT22;2065;49.790;9.620;2022-12-29T14:35:49;15.60;54.70
4103;DHT22;2065;49.790;9.620;2022-12-29T14:38:24;15.70;54.70
4103;DHT22;2065;49.790;9.620;2022-12-29T14:40:53;15.70;55.00
4103;DHT22;2065;49.790;9.620;2022-12-29T14:43:54;15.80;54.60
4103;DHT22;2065;49.790;9.620;2022-12-29T14:46:23;16.00;54.70
4103;DHT22;2065;49.790;9.620;2022-12-29T14:48:56;16.00;54.10
4103;DHT22;2065;49.790;9.620;2022-12-29T14:51:34;15.90;54.00
4103;DHT22;2065;49.790;9.620;2022-12-29T14:57:03;15.60;54.70
4103;DHT22;2065;49.790;9.620;2022-12-29T14:59:32;15.40;55.50
4103;DHT22;2065;49.790;9.620;2022-12-29T15:02:02;15.20;56.30
4103;DHT22;2065;49.790;9.620;2022-12-29T15:04:32;15.10;56.60
4103;DHT22;2065;49.790;9.620;2022-12-29T15:07:00;14.70;57.20
4103;DHT22;2065;49.790;9.620;2022-12-29T15:09:33;14.70;59.00
4103;DHT22;2065;49.790;9.620;2022-12-29T15:12:13;14.80;59.50
4103;DHT22;2065;49.790;9.620;2022-12-29T15:14:50;14.50;60.70
4103;DHT22;2065;49.790;9.620;2022-12-29T15:17:24;14.60;61.10
4103;DHT22;2065;49.790;9.620;2022-12-29T15:19:52;14.60;60.70
4103;DHT22;2065;49.790;9.620;2022-12-29T15:22:19;14.40;61.70
4103;DHT22;2065;49.790;9.620;2022-12-29T15:24:48;14.20;62.30
4103;DHT22;2065;49.790;9.620;2022-12-29T15:27:20;13.80;62.90
4103;DHT22;2065;49.790;9.620;2022-12-29T15:29:50;13.60;63.60
4103;DHT22;2065;49.790;9.620;2022-12-29T15:32:23;13.70;63.80
4103;DHT22;2065;49.790;9.620;2022-12-29T15:34:52;13.90;63.20
4103;DHT22;2065;49.790;9.620;2022-12-29T15:37:22;13.70;63.90
4103;DHT22;2065;49.790;9.620;2022-12-29T15:39:50;13.80;62.70
4103;DHT22;2065;49.790;9.620;2022-12-29T15:42:31;13.70;63.60
4103;DHT22;2065;49.790;9.620;2022-12-29T15:45:03;13.50;64.30
4103;DHT22;2065;49.790;9.620;2022-12-29T15:47:31;13.40;64.50
4103;DHT22;2065;49.790;9.620;2022-12-29T15:50:02;13.40;65.20
4103;DHT22;2065;49.790;9.620;2022-12-29T15:52:32;13.60;65.10
4103;DHT22;2065;49.790;9.620;2022-12-29T15:55:00;13.70;63.30
4103;DHT22;2065;49.790;9.620;2022-12-29T15:57:41;13.80;63.40
4103;DHT22;2065;49.790;9.620;2022-12-29T16:00:22;13.90;63.50
4103;DHT22;2065;49.790;9.620;2022-12-29T16:02:50;13.90;62.70
4103;DHT22;2065;49.790;9.620;2022-12-29T16:05:17;13.80;62.60
4103;DHT22;2065;49.790;9.620;2022-12-29T16:07:52;14.00;63.00
4103;DHT22;2065;49.790;9.620;2022-12-29T16:10:26;14.00;62.70
4103;DHT22;2065;49.790;9.620;2022-12-29T16:13:05;13.90;62.90
4103;DHT22;2065;49.790;9.620;2022-12-29T16:15:33;14.00;63.00
4103;DHT22;2065;49.790;9.620;2022-12-29T16:18:00;13.80;63.10
4103;DHT22;2065;49.790;9.620;2022-12-29T16:20:37;14.00;62.70
4103;DHT22;2065;49.790;9.620;2022-12-29T16:23:12;13.80;62.60
4103;DHT22;2065;49.790;9.620;2022-12-29T16:25:43;14.00;62.70
4103;DHT22;2065;49.790;9.620;2022-12-29T16:28:18;14.10;62.50
4103;DHT22;2065;49.790;9.620;2022-12-29T16:30:46;14.00;61.70
4103;DHT22;2065;49.790;9.620;2022-12-29T16:33:32;14.00;62.20
4103;DHT22;2065;49.790;9.620;2022-12-29T16:36:22;13.90;62.30
4103;DHT22;2065;49.790;9.620;2022-12-29T16:38:49;14.00;62.80
4103;DHT22;2065;49.790;9.620;2022-12-29T16:41:28;14.00;61.80
4103;DHT22;2065;49.790;9.620;2022-12-29T16:44:12;13.80;62.00